Time;durP1;ratioP1;P1;durP2;ratioP2;P2;SDS_P1;SDS_P2;PMS_P1;PMS_P2;Temp;Humidity;BMP_temperature;BMP_pressure;BME280_temperature;BME280_humidity;BME280_pressure;Samples;Min_cycle;Max_cycle;Signal;HPM_P1;HPM_P2
2022/09/12 00:00:40;;;;;;;9.30;6.65;;;16.00;99.90;;;;;;5011563;28;20048;-44
2022/09/12 00:03:07;;;;;;;8.75;6.20;;;16.00;99.90;;;;;;5011609;28;20132;-46
2022/09/12 00:05:33;;;;;;;6.43;5.70;;;15.90;99.90;;;;;;5010589;28;20045;-45
2022/09/12 00:08:02;;;;;;;5.07;4.32;;;15.90;99.90;;;;;;5011193;28;20081;-39
2022/09/12 00:10:29;;;;;;;7.00;6.30;;;15.90;99.90;;;;;;5009432;28;20128;-44
2022/09/12 00:12:55;;;;;;;5.53;5.03;;;15.80;99.90;;;;;;5010354;28;20089;-39
2022/09/12 00:15:22;;;;;;;5.80;5.20;;;15.80;99.90;;;;;;5010618;28;20077;-47
2022/09/12 00:17:49;;;;;;;6.75;4.82;;;15.80;99.90;;;;;;5011227;28;20137;-46
2022/09/12 00:20:16;;;;;;;6.50;5.90;;;15.80;99.90;;;;;;5011543;28;20046;-45
2022/09/12 00:22:42;;;;;;;7.22;5.57;;;15.80;99.90;;;;;;5009794;28;20457;-48
2022/09/12 00:25:11;;;;;;;6.90;6.20;;;15.70;99.90;;;;;;5010798;28;20053;-49
2022/09/12 00:27:37;;;;;;;6.40;5.80;;;15.70;99.90;;;;;;5010509;28;20092;-44
2022/09/12 00:30:05;;;;;;;8.52;6.80;;;15.60;99.90;;;;;;5010975;28;20121;-48
2022/09/12 00:32:32;;;;;;;7.25;5.72;;;15.70;99.90;;;;;;5009929;28;20774;-47
2022/09/12 00:34:59;;;;;;;5.97;5.38;;;15.60;99.90;;;;;;5011363;28;20477;-48
2022/09/12 00:37:25;;;;;;;7.55;6.82;;;15.60;99.90;;;;;;5012137;28;20050;-45
2022/09/12 00:39:52;;;;;;;6.75;6.10;;;15.60;99.90;;;;;;5009656;28;20094;-48
2022/09/12 00:42:21;;;;;;;7.30;6.43;;;15.50;99.90;;;;;;5010735;28;20391;-48
2022/09/12 00:44:51;;;;;;;7.47;6.38;;;15.50;99.90;;;;;;5017285;28;20062;-45
2022/09/12 00:47:21;;;;;;;6.60;5.63;;;15.50;99.90;;;;;;5010220;28;20105;-46
2022/09/12 00:49:49;;;;;;;6.70;5.45;;;15.40;99.90;;;;;;5011029;28;20520;-44
2022/09/12 00:52:18;;;;;;;7.43;6.60;;;15.40;99.90;;;;;;5010728;28;20482;-45
2022/09/12 00:54:48;;;;;;;7.60;6.90;;;15.40;99.90;;;;;;5010657;28;20145;-48
2022/09/12 00:57:14;;;;;;;7.03;6.32;;;15.40;99.90;;;;;;5010724;28;20493;-48
2022/09/12 00:59:44;;;;;;;9.02;7.00;;;15.40;99.90;;;;;;5009482;28;20494;-45
2022/09/12 01:02:10;;;;;;;8.52;7.72;;;15.30;99.90;;;;;;5009113;28;20056;-49
2022/09/12 01:04:37;;;;;;;9.45;8.45;;;15.30;99.90;;;;;;5011094;28;20137;-44
2022/09/12 01:07:04;;;;;;;7.68;5.60;;;15.30;99.90;;;;;;5009948;28;20463;-46
2022/09/12 01:09:31;;;;;;;6.22;5.63;;;15.30;99.90;;;;;;5009177;28;20133;-46
2022/09/12 01:11:58;;;;;;;6.45;5.28;;;15.30;99.90;;;;;;5012176;28;20453;-45
2022/09/12 01:14:24;;;;;;;8.95;8.05;;;15.30;99.90;;;;;;5013236;28;20074;-46
2022/09/12 01:16:52;;;;;;;11.45;10.00;;;15.20;99.90;;;;;;5013196;28;20128;-47
2022/09/12 01:19:34;;;;;;;9.80;8.80;;;15.20;99.90;;;;;;5014017;28;20132;-45
2022/09/12 01:22:07;;;;;;;9.38;8.48;;;15.20;99.90;;;;;;5013869;28;20053;-47
2022/09/12 01:24:49;;;;;;;8.73;7.93;;;15.10;99.90;;;;;;5015433;28;20041;-42
2022/09/12 01:27:44;;;;;;;10.40;9.35;;;15.20;99.90;;;;;;5014685;28;20388;-46
2022/09/12 01:30:31;;;;;;;9.38;7.57;;;15.10;99.90;;;;;;4989335;28;20139;-47
2022/09/12 01:33:35;;;;;;;11.63;10.52;;;15.10;99.90;;;;;;5011695;28;20125;-46
2022/09/12 01:36:23;;;;;;;14.60;12.20;;;15.10;99.90;;;;;;5003198;28;20128;-46
2022/09/12 01:38:52;;;;;;;9.85;8.85;;;15.10;99.90;;;;;;5019478;28;20077;-45
2022/09/12 01:41:23;;;;;;;10.65;9.52;;;15.00;99.90;;;;;;5009826;28;20088;-45
2022/09/12 01:43:52;;;;;;;17.17;13.30;;;15.00;99.90;;;;;;5012910;28;20054;-47
2022/09/12 01:46:23;;;;;;;17.92;14.55;;;15.00;99.90;;;;;;5012116;28;20132;-48
2022/09/12 01:48:51;;;;;;;12.03;10.83;;;15.00;99.90;;;;;;5013427;28;20065;-48
2022/09/12 01:51:20;;;;;;;13.98;12.20;;;15.00;99.90;;;;;;5012194;28;20305;-45
2022/09/12 01:53:48;;;;;;;17.50;14.20;;;15.00;99.90;;;;;;5012507;28;20056;-48
2022/09/12 01:56:21;;;;;;;21.00;17.27;;;15.00;99.90;;;;;;5013339;28;20151;-45
2022/09/12 01:58:49;;;;;;;18.58;14.82;;;15.00;99.90;;;;;;5012452;28;20081;-45
2022/09/12 02:01:17;;;;;;;15.38;13.88;;;14.90;99.90;;;;;;5013507;28;20172;-47
2022/09/12 02:03:47;;;;;;;22.48;19.92;;;15.00;99.90;;;;;;5005957;28;20134;-48
2022/09/12 02:06:17;;;;;;;21.80;18.00;;;14.90;99.90;;;;;;5012708;28;20129;-46
2022/09/12 02:08:45;;;;;;;20.55;16.58;;;14.90;99.90;;;;;;5013919;28;20563;-44
2022/09/12 02:11:12;;;;;;;14.57;12.43;;;14.90;99.90;;;;;;5013687;28;20128;-43
2022/09/12 02:13:41;;;;;;;20.42;16.98;;;14.90;99.90;;;;;;5014097;28;20129;-46
2022/09/12 02:16:10;;;;;;;19.50;14.05;;;14.90;99.90;;;;;;5010756;28;20081;-43
2022/09/12 02:18:37;;;;;;;14.43;12.93;;;14.90;99.90;;;;;;5011411;28;20056;-46
2022/09/12 02:21:06;;;;;;;18.52;16.48;;;14.90;99.90;;;;;;5012731;28;20050;-44
2022/09/12 02:23:33;;;;;;;17.10;15.00;;;14.80;99.90;;;;;;5012264;28;20092;-44
2022/09/12 02:26:02;;;;;;;16.15;14.02;;;14.80;99.90;;;;;;5014223;28;20086;-48
2022/09/12 02:28:30;;;;;;;16.40;14.27;;;14.80;99.90;;;;;;5012299;28;20085;-43
2022/09/12 02:31:01;;;;;;;15.32;12.55;;;14.80;99.90;;;;;;5012436;28;20104;-47
2022/09/12 02:33:30;;;;;;;13.93;12.35;;;14.80;99.90;;;;;;5013653;28;20112;-44
2022/09/12 02:35:59;;;;;;;17.55;14.05;;;14.80;99.90;;;;;;5013863;28;20053;-43
2022/09/12 02:38:29;;;;;;;17.42;14.50;;;14.70;99.90;;;;;;5005172;28;20504;-46
2022/09/12 02:40:56;;;;;;;16.10;13.43;;;14.70;99.90;;;;;;5006537;28;20570;-45
2022/09/12 02:43:23;;;;;;;18.10;15.73;;;14.70;99.90;;;;;;5012115;28;20140;-46
2022/09/12 02:45:49;;;;;;;13.45;12.10;;;14.70;99.90;;;;;;5013917;28;20049;-45
2022/09/12 02:48:18;;;;;;;14.77;13.20;;;14.70;99.90;;;;;;5012968;28;20141;-42
2022/09/12 02:50:45;;;;;;;20.13;16.05;;;14.60;99.90;;;;;;5013693;28;20133;-45
2022/09/12 02:53:12;;;;;;;13.30;11.93;;;14.60;99.90;;;;;;5011690;28;20060;-45
2022/09/12 02:55:40;;;;;;;16.67;14.95;;;14.60;99.90;;;;;;5012428;28;20458;-46
2022/09/12 02:58:08;;;;;;;15.75;11.75;;;14.60;99.90;;;;;;5011287;28;20054;-44
2022/09/12 03:00:37;;;;;;;17.45;15.50;;;14.60;99.90;;;;;;5012168;28;20141;-40
2022/09/12 03:03:15;;;;;;;18.85;15.68;;;14.50;99.90;;;;;;4997680;28;20801;-46
2022/09/12 03:05:46;;;;;;;16.48;14.73;;;14.50;99.90;;;;;;5010879;28;20081;-46
2022/09/12 03:08:19;;;;;;;16.77;13.70;;;14.50;99.90;;;;;;5011869;28;20052;-47
2022/09/12 03:10:57;;;;;;;12.77;11.43;;;14.50;99.90;;;;;;5012245;28;20144;-47
2022/09/12 03:13:26;;;;;;;14.98;12.35;;;14.50;99.90;;;;;;5024106;28;20152;-40
2022/09/12 03:16:00;;;;;;;14.13;12.68;;;14.40;99.90;;;;;;5010093;28;20474;-45
2022/09/12 03:18:40;;;;;;;17.02;15.27;;;14.40;99.90;;;;;;5011443;28;20383;-45
2022/09/12 03:21:09;;;;;;;14.40;12.90;;;14.40;99.90;;;;;;5010466;28;20061;-47
2022/09/12 03:23:38;;;;;;;17.40;15.07;;;14.40;99.90;;;;;;5012452;28;20046;-48
2022/09/12 03:26:12;;;;;;;15.48;13.30;;;14.40;99.90;;;;;;5013216;28;20463;-44
2022/09/12 03:28:39;;;;;;;17.25;12.77;;;14.30;99.90;;;;;;5010979;28;20096;-46
2022/09/12 03:31:12;;;;;;;19.63;17.05;;;14.30;99.90;;;;;;5011501;28;20049;-43
2022/09/12 03:33:39;;;;;;;18.33;16.10;;;14.30;99.90;;;;;;5011138;28;20053;-41
2022/09/12 03:36:06;;;;;;;17.65;15.18;;;14.30;99.90;;;;;;5010202;28;20544;-49
2022/09/12 03:38:33;;;;;;;18.67;16.23;;;14.30;99.90;;;;;;5004891;28;20078;-47
2022/09/12 03:41:01;;;;;;;19.10;15.80;;;14.20;99.90;;;;;;5009079;28;20108;-45
2022/09/12 03:43:29;;;;;;;15.65;13.98;;;14.20;99.90;;;;;;4999474;28;20399;-50
2022/09/12 03:45:55;;;;;;;17.50;15.70;;;14.20;99.90;;;;;;5011542;28;20077;-48
2022/09/12 03:48:22;;;;;;;18.83;13.98;;;14.20;99.90;;;;;;5011567;28;20125;-46
2022/09/12 03:50:49;;;;;;;16.58;13.82;;;14.20;99.90;;;;;;5010683;28;20053;-46
2022/09/12 03:53:16;;;;;;;20.55;17.25;;;14.20;99.90;;;;;;5005748;28;20049;-45
2022/09/12 03:55:43;;;;;;;14.30;12.80;;;14.10;99.90;;;;;;5008183;28;20084;-46
2022/09/12 03:58:09;;;;;;;18.27;15.43;;;14.10;99.90;;;;;;5009155;28;20119;-43
2022/09/12 04:00:39;;;;;;;19.25;15.27;;;14.10;99.90;;;;;;5010422;28;20134;-49
2022/09/12 04:03:06;;;;;;;22.92;17.35;;;14.10;99.90;;;;;;5009802;28;20042;-47
2022/09/12 04:05:33;;;;;;;16.45;14.63;;;14.10;99.90;;;;;;5010635;28;20084;-50
2022/09/12 04:08:00;;;;;;;17.35;13.55;;;14.10;99.90;;;;;;5010350;28;20058;-44
2022/09/12 04:10:26;;;;;;;23.88;18.95;;;14.00;99.90;;;;;;5011569;28;20050;-44
2022/09/12 04:12:53;;;;;;;17.58;15.00;;;14.00;99.90;;;;;;5010225;28;20046;-50
2022/09/12 04:15:20;;;;;;;20.90;15.63;;;14.00;99.90;;;;;;5011489;28;20093;-46
2022/09/12 04:17:48;;;;;;;18.30;15.05;;;14.00;99.90;;;;;;5004322;28;20556;-47
2022/09/12 04:20:15;;;;;;;20.33;17.55;;;14.00;99.90;;;;;;5009630;28;20121;-50
2022/09/12 04:22:42;;;;;;;18.25;14.32;;;14.00;99.90;;;;;;5010068;28;20050;-48
2022/09/12 04:25:10;;;;;;;16.63;14.82;;;13.90;99.90;;;;;;5010997;28;20144;-47
2022/09/12 04:27:37;;;;;;;20.65;17.77;;;13.90;99.90;;;;;;5009356;28;20058;-45
2022/09/12 04:30:04;;;;;;;19.02;15.75;;;13.90;99.90;;;;;;4992564;28;20050;-45
2022/09/12 04:32:31;;;;;;;18.77;16.88;;;13.90;99.90;;;;;;5000533;28;20620;-46
2022/09/12 04:34:59;;;;;;;21.60;18.00;;;13.80;99.90;;;;;;5010615;28;20113;-48
2022/09/12 04:37:26;;;;;;;22.08;18.48;;;13.90;99.90;;;;;;5010570;28;20129;-46
2022/09/12 04:39:56;;;;;;;18.42;15.13;;;13.80;99.90;;;;;;5007442;28;20142;-46
2022/09/12 04:42:23;;;;;;;23.80;19.90;;;13.80;99.90;;;;;;5010063;28;20050;-49
2022/09/12 04:44:50;;;;;;;16.98;14.57;;;13.80;99.90;;;;;;5010801;28;20452;-47
2022/09/12 04:47:17;;;;;;;19.35;16.20;;;13.80;99.90;;;;;;5011539;28;20125;-47
2022/09/12 04:49:44;;;;;;;22.17;19.23;;;13.80;99.90;;;;;;5014834;28;20129;-48
2022/09/12 04:52:12;;;;;;;20.52;17.15;;;13.80;99.90;;;;;;5015048;28;20104;-50
2022/09/12 04:54:40;;;;;;;22.35;19.33;;;13.80;99.90;;;;;;5014160;28;20108;-48
2022/09/12 04:57:06;;;;;;;21.92;18.45;;;13.80;99.90;;;;;;5014452;28;20065;-45
2022/09/12 04:59:33;;;;;;;24.33;21.73;;;13.80;99.90;;;;;;5015011;28;20120;-48
2022/09/12 05:02:00;;;;;;;27.05;21.48;;;13.90;99.90;;;;;;5012256;28;20112;-47
2022/09/12 05:04:27;;;;;;;22.73;18.35;;;13.80;99.90;;;;;;5014257;28;20045;-47
2022/09/12 05:06:54;;;;;;;26.73;21.00;;;13.80;99.90;;;;;;5013915;28;20450;-48
2022/09/12 05:09:22;;;;;;;19.73;17.05;;;13.90;99.90;;;;;;5014305;28;20458;-47
2022/09/12 05:11:49;;;;;;;25.63;20.88;;;13.90;99.90;;;;;;5014776;28;20133;-50
2022/09/12 05:14:15;;;;;;;30.27;22.92;;;13.90;99.90;;;;;;5014801;28;20061;-44
2022/09/12 05:16:42;;;;;;;21.42;17.38;;;13.90;99.90;;;;;;5011420;28;20046;-42
2022/09/12 05:19:10;;;;;;;40.15;27.98;;;14.00;99.90;;;;;;5012395;28;20057;-45
2022/09/12 05:21:37;;;;;;;35.00;28.33;;;14.00;99.90;;;;;;5012663;28;20069;-41
2022/09/12 05:24:05;;;;;;;31.83;24.35;;;14.00;99.90;;;;;;5013779;28;20050;-47
2022/09/12 05:26:33;;;;;;;30.67;24.67;;;14.00;99.90;;;;;;5014678;28;20096;-46
2022/09/12 05:29:00;;;;;;;50.58;35.67;;;14.10;99.90;;;;;;5012316;28;20509;-45
2022/09/12 05:31:27;;;;;;;39.92;30.17;;;14.10;99.90;;;;;;5010868;28;20504;-47
2022/09/12 05:33:55;;;;;;;52.17;37.08;;;14.20;99.90;;;;;;5010510;28;20045;-47
2022/09/12 05:36:23;;;;;;;54.40;38.72;;;14.20;99.90;;;;;;5012795;28;20445;-48
2022/09/12 05:38:49;;;;;;;50.75;36.88;;;14.30;99.90;;;;;;5007858;28;20054;-47
2022/09/12 05:41:17;;;;;;;55.60;38.70;;;14.30;99.90;;;;;;5012001;28;20046;-48
2022/09/12 05:43:45;;;;;;;50.20;34.30;;;14.40;99.90;;;;;;5013022;28;20506;-48
2022/09/12 05:46:14;;;;;;;53.72;39.75;;;14.40;99.90;;;;;;5011965;28;20089;-46
2022/09/12 05:48:42;;;;;;;45.63;35.15;;;14.50;99.90;;;;;;5012719;28;20184;-49
2022/09/12 05:51:09;;;;;;;52.00;35.70;;;14.60;99.90;;;;;;5012194;28;20457;-49
2022/09/12 05:53:37;;;;;;;51.80;39.00;;;14.60;99.90;;;;;;5013263;28;20133;-44
2022/09/12 05:56:05;;;;;;;60.65;40.83;;;14.60;99.90;;;;;;5011578;28;20085;-48
2022/09/12 05:58:32;;;;;;;51.83;37.55;;;14.70;99.90;;;;;;5013881;28;20046;-47
2022/09/12 06:01:06;;;;;;;47.85;35.40;;;14.70;99.90;;;;;;5014442;28;20426;-46
2022/09/12 06:03:32;;;;;;;52.25;36.55;;;14.70;99.90;;;;;;5012989;28;20139;-46
2022/09/12 06:06:02;;;;;;;55.05;38.60;;;14.70;99.90;;;;;;5011000;28;20566;-45
2022/09/12 06:08:29;;;;;;;55.55;39.47;;;14.80;99.90;;;;;;5014865;28;20565;-36
2022/09/12 06:10:59;;;;;;;57.83;41.35;;;14.80;99.90;;;;;;5015217;28;20104;-46
2022/09/12 06:13:26;;;;;;;60.38;42.33;;;14.80;99.90;;;;;;5013559;28;20053;-45
2022/09/12 06:15:53;;;;;;;54.35;38.58;;;14.90;99.90;;;;;;5001113;28;20512;-43
2022/09/12 06:18:21;;;;;;;60.60;41.50;;;14.90;99.90;;;;;;5003313;28;20060;-44
2022/09/12 06:20:47;;;;;;;57.28;41.28;;;15.00;99.90;;;;;;5012318;28;20104;-41
2022/09/12 06:23:15;;;;;;;61.58;42.55;;;15.00;99.90;;;;;;4992130;28;20064;-46
2022/09/12 06:25:47;;;;;;;60.78;42.00;;;15.00;99.90;;;;;;5006189;28;20046;-42
2022/09/12 06:28:14;;;;;;;63.50;43.15;;;15.00;99.90;;;;;;5011945;28;20050;-41
2022/09/12 06:30:40;;;;;;;61.05;42.25;;;15.00;99.90;;;;;;5002515;28;20068;-40
2022/09/12 06:33:07;;;;;;;65.18;43.58;;;15.10;99.90;;;;;;5009336;28;20049;-41
2022/09/12 06:35:37;;;;;;;61.38;41.72;;;15.10;99.90;;;;;;4993028;28;20058;-44
2022/09/12 06:38:04;;;;;;;60.03;41.55;;;15.10;99.90;;;;;;5004908;28;20053;-44
2022/09/12 06:40:31;;;;;;;62.70;42.00;;;15.20;99.90;;;;;;5009919;28;20121;-42
2022/09/12 06:42:57;;;;;;;64.75;41.80;;;15.20;99.90;;;;;;5011018;28;20127;-45
2022/09/12 06:45:24;;;;;;;62.50;41.63;;;15.20;99.90;;;;;;5012351;28;20196;-45
2022/09/12 06:47:51;;;;;;;60.00;42.47;;;15.20;99.90;;;;;;5012276;28;20049;-45
2022/09/12 06:50:18;;;;;;;57.25;40.45;;;15.20;99.90;;;;;;5012650;28;20108;-42
2022/09/12 06:52:48;;;;;;;60.55;41.28;;;15.30;99.90;;;;;;4992227;28;20526;-39
2022/09/12 06:55:15;;;;;;;59.60;41.72;;;15.30;99.90;;;;;;4997375;28;20108;-40
2022/09/12 06:57:42;;;;;;;57.35;42.03;;;15.30;99.90;;;;;;5012300;28;20786;-42
2022/09/12 07:00:10;;;;;;;56.17;38.58;;;15.40;99.90;;;;;;5011955;28;20061;-43
2022/09/12 07:02:37;;;;;;;54.90;38.00;;;15.40;99.90;;;;;;5011144;28;20089;-42
2022/09/12 07:05:05;;;;;;;58.78;41.55;;;15.50;99.90;;;;;;5010442;28;20128;-44
2022/09/12 07:07:33;;;;;;;57.58;40.10;;;15.50;99.90;;;;;;5005060;28;20046;-43
2022/09/12 07:10:01;;;;;;;64.35;41.20;;;15.50;99.90;;;;;;4991402;28;20069;-38
2022/09/12 07:12:28;;;;;;;58.95;39.83;;;15.60;99.90;;;;;;5003889;28;20047;-44
2022/09/12 07:14:55;;;;;;;56.53;39.25;;;15.60;99.90;;;;;;5004765;28;20054;-43
2022/09/12 07:17:21;;;;;;;53.08;38.85;;;15.60;99.90;;;;;;5011774;28;20049;-40
2022/09/12 07:19:48;;;;;;;57.63;39.03;;;15.60;99.90;;;;;;5010116;28;20151;-44
2022/09/12 07:22:15;;;;;;;57.25;39.33;;;15.70;99.90;;;;;;5006162;28;20108;-44
2022/09/12 07:24:42;;;;;;;58.70;40.33;;;15.80;99.90;;;;;;5005245;28;20483;-44
2022/09/12 07:27:10;;;;;;;54.35;38.53;;;15.80;99.90;;;;;;5003672;28;20494;-46
2022/09/12 07:29:37;;;;;;;56.88;38.47;;;15.90;99.90;;;;;;5004515;28;20058;-40
2022/09/12 07:32:04;;;;;;;58.28;39.08;;;15.90;99.90;;;;;;5011201;28;20045;-47
2022/09/12 07:34:31;;;;;;;49.40;36.58;;;16.00;99.90;;;;;;5009665;28;20516;-45
2022/09/12 07:36:59;;;;;;;56.63;39.10;;;16.00;99.90;;;;;;5010640;28;20073;-46
2022/09/12 07:39:26;;;;;;;53.22;37.65;;;16.20;99.90;;;;;;5011015;28;20058;-45
2022/09/12 07:41:53;;;;;;;52.20;36.42;;;16.20;99.90;;;;;;5012548;28;20057;-45
2022/09/12 07:44:22;;;;;;;52.05;35.95;;;16.30;99.90;;;;;;5009736;28;20046;-45
2022/09/12 07:46:49;;;;;;;46.58;35.53;;;16.40;99.90;;;;;;5001459;28;20405;-43
2022/09/12 07:49:16;;;;;;;49.47;35.40;;;16.50;99.90;;;;;;5012479;28;20050;-41
2022/09/12 07:51:43;;;;;;;51.80;34.72;;;16.50;99.90;;;;;;5011133;28;20084;-44
2022/09/12 07:54:10;;;;;;;46.40;34.88;;;16.50;99.90;;;;;;5009633;28;20046;-47
2022/09/12 07:56:36;;;;;;;44.88;34.00;;;16.60;99.90;;;;;;5008890;28;20144;-40
2022/09/12 07:59:03;;;;;;;46.22;33.58;;;16.60;99.90;;;;;;5011356;28;20144;-43
2022/09/12 08:01:32;;;;;;;51.03;34.67;;;16.60;99.90;;;;;;5010067;28;20510;-46
2022/09/12 08:03:59;;;;;;;48.05;34.60;;;16.70;99.90;;;;;;5009875;28;20145;-42
2022/09/12 08:06:26;;;;;;;53.03;34.72;;;16.70;99.90;;;;;;5008118;28;20061;-46
2022/09/12 08:08:54;;;;;;;50.40;34.38;;;16.70;99.90;;;;;;5010684;28;20505;-47
2022/09/12 08:11:21;;;;;;;50.60;35.38;;;16.70;99.90;;;;;;5010220;28;20438;-43
2022/09/12 08:13:48;;;;;;;51.17;36.00;;;16.80;99.90;;;;;;5011902;28;20103;-39
2022/09/12 08:16:16;;;;;;;50.15;35.53;;;16.80;99.90;;;;;;5007356;28;20137;-45
2022/09/12 08:18:54;;;;;;;51.58;35.65;;;16.90;99.90;;;;;;5003383;28;20391;-46
2022/09/12 08:21:21;;;;;;;52.50;36.05;;;16.90;99.90;;;;;;5010274;28;20049;-42
2022/09/12 08:23:51;;;;;;;50.75;36.10;;;16.90;99.90;;;;;;5007572;28;20054;-45
2022/09/12 08:26:18;;;;;;;54.70;34.58;;;17.00;99.90;;;;;;5001741;28;20081;-46
2022/09/12 08:28:45;;;;;;;51.10;34.08;;;17.10;99.90;;;;;;5007053;28;20060;-45
2022/09/12 08:31:13;;;;;;;51.92;35.88;;;17.20;99.90;;;;;;5010742;28;20049;-46
2022/09/12 08:33:40;;;;;;;48.78;35.53;;;17.20;99.90;;;;;;5010111;28;20058;-50
2022/09/12 08:36:10;;;;;;;57.92;37.47;;;17.30;99.90;;;;;;5005084;28;20060;-39
2022/09/12 08:38:37;;;;;;;56.40;37.88;;;17.40;99.90;;;;;;5017493;28;20073;-42
2022/09/12 08:41:07;;;;;;;52.72;37.15;;;17.50;99.90;;;;;;5009811;28;20058;-46
2022/09/12 08:43:43;;;;;;;55.70;37.20;;;17.60;99.90;;;;;;5011227;28;20053;-44
2022/09/12 08:46:13;;;;;;;58.70;39.28;;;17.70;99.90;;;;;;5009573;28;20449;-42
2022/09/12 08:48:39;;;;;;;56.78;38.28;;;17.80;99.90;;;;;;5010620;28;20145;-44
2022/09/12 08:51:09;;;;;;;56.60;37.22;;;17.90;99.90;;;;;;5010965;28;20054;-45
2022/09/12 08:53:37;;;;;;;67.47;41.38;;;18.00;99.90;;;;;;5010971;28;20132;-44
2022/09/12 08:56:04;;;;;;;59.45;38.22;;;18.20;99.90;;;;;;5010284;28;20140;-46
2022/09/12 08:58:31;;;;;;;59.88;38.67;;;18.30;99.90;;;;;;5010806;28;20112;-48
2022/09/12 09:01:00;;;;;;;64.93;41.00;;;18.50;99.90;;;;;;5011704;28;20101;-46
2022/09/12 09:03:43;;;;;;;61.25;39.80;;;18.60;99.90;;;;;;5008979;28;20140;-42
2022/09/12 09:06:15;;;;;;;59.35;40.03;;;18.80;99.90;;;;;;5011177;28;20050;-46
2022/09/12 09:08:47;;;;;;;59.30;39.55;;;19.00;99.90;;;;;;5010712;28;20127;-48
2022/09/12 09:11:26;;;;;;;63.40;42.15;;;19.00;99.90;;;;;;5010635;28;20054;-46
2022/09/12 09:16:44;;;;;;;65.05;42.80;;;19.20;99.90;;;;;;5017073;28;20050;-48
2022/09/12 09:19:12;;;;;;;62.05;40.95;;;19.20;99.90;;;;;;5009556;28;20104;-49
2022/09/12 09:21:43;;;;;;;64.05;41.40;;;19.30;99.90;;;;;;5010339;28;20046;-45
2022/09/12 09:24:11;;;;;;;64.87;42.50;;;19.40;99.90;;;;;;4997018;28;20406;-45
2022/09/12 09:26:42;;;;;;;65.72;41.10;;;19.50;99.90;;;;;;5009365;28;20142;-48
2022/09/12 09:29:14;;;;;;;64.32;41.22;;;19.60;99.90;;;;;;5010049;28;20121;-45
2022/09/12 09:31:40;;;;;;;63.53;42.08;;;19.80;99.90;;;;;;5011147;28;20050;-46
2022/09/12 09:34:13;;;;;;;65.90;42.65;;;20.00;99.90;;;;;;5012301;28;20088;-47
2022/09/12 09:36:51;;;;;;;62.35;39.58;;;20.20;99.90;;;;;;5013519;28;20143;-45
2022/09/12 09:39:33;;;;;;;63.90;40.35;;;20.30;99.90;;;;;;5007760;28;20057;-48
2022/09/12 09:42:11;;;;;;;60.20;39.50;;;20.40;99.90;;;;;;5012835;28;20143;-42
2022/09/12 09:44:38;;;;;;;61.97;37.72;;;20.50;99.90;;;;;;5013111;28;20050;-45
2022/09/12 09:47:05;;;;;;;58.60;38.55;;;20.70;99.90;;;;;;5012677;28;20156;-43
2022/09/12 09:49:33;;;;;;;53.05;35.90;;;20.90;99.90;;;;;;5013579;28;20077;-46
2022/09/12 09:52:02;;;;;;;50.95;33.33;;;21.10;99.90;;;;;;5011493;28;20056;-43
2022/09/12 09:54:31;;;;;;;50.33;32.88;;;21.10;98.80;;;;;;5011657;28;20085;-49
2022/09/12 09:56:58;;;;;;;50.33;31.67;;;21.20;98.50;;;;;;4999770;28;20054;-48
2022/09/12 09:59:26;;;;;;;49.05;32.22;;;21.40;98.10;;;;;;5006442;28;20478;-50
2022/09/12 10:01:54;;;;;;;47.60;33.17;;;21.50;97.90;;;;;;5007925;28;20104;-50
2022/09/12 10:04:21;;;;;;;44.33;29.80;;;21.50;97.70;;;;;;5013421;28;20046;-44
2022/09/12 10:06:49;;;;;;;43.55;31.60;;;21.60;98.00;;;;;;5013556;28;20142;-43
2022/09/12 10:09:22;;;;;;;45.55;32.38;;;21.60;97.50;;;;;;5012433;28;20050;-43
2022/09/12 10:11:49;;;;;;;43.13;31.83;;;21.60;97.50;;;;;;5007633;28;20182;-46
2022/09/12 10:14:34;;;;;;;46.13;31.55;;;21.80;97.60;;;;;;5006221;28;20104;-44
2022/09/12 10:17:02;;;;;;;47.22;31.80;;;21.90;96.60;;;;;;5012631;28;20123;-42
2022/09/12 10:19:35;;;;;;;44.85;31.58;;;22.10;96.90;;;;;;5010197;28;20053;-44
2022/09/12 10:22:02;;;;;;;46.83;30.98;;;22.30;95.70;;;;;;5010126;28;20386;-42
2022/09/12 10:24:32;;;;;;;42.90;30.10;;;22.40;95.70;;;;;;5010952;28;20054;-39
2022/09/12 10:27:07;;;;;;;46.08;31.80;;;22.60;95.50;;;;;;5012302;28;20452;-44
2022/09/12 10:29:38;;;;;;;39.55;28.83;;;22.70;95.30;;;;;;5008937;28;20143;-48
2022/09/12 10:32:06;;;;;;;45.88;29.63;;;22.80;94.90;;;;;;5011254;28;20049;-43
2022/09/12 10:34:35;;;;;;;43.58;28.98;;;22.80;94.50;;;;;;5012891;28;20124;-42
2022/09/12 10:37:04;;;;;;;39.20;27.42;;;22.90;94.50;;;;;;5011266;28;20486;-44
2022/09/12 10:39:33;;;;;;;38.00;26.08;;;23.10;94.50;;;;;;4997638;28;20082;-43
2022/09/12 10:42:00;;;;;;;34.03;24.55;;;23.10;93.60;;;;;;5011515;28;20263;-46
2022/09/12 10:44:28;;;;;;;35.85;26.23;;;23.20;93.70;;;;;;5012234;28;20097;-46
2022/09/12 10:46:55;;;;;;;30.05;22.17;;;23.30;93.30;;;;;;5013032;28;20100;-47
2022/09/12 10:49:27;;;;;;;34.33;24.40;;;23.50;93.50;;;;;;5012457;28;20089;-48
2022/09/12 10:51:54;;;;;;;32.20;22.42;;;23.60;92.80;;;;;;5012075;28;20077;-45
2022/09/12 10:54:22;;;;;;;32.35;24.08;;;23.80;92.70;;;;;;5010609;28;20046;-43
2022/09/12 10:57:09;;;;;;;33.75;22.90;;;23.90;92.20;;;;;;5011765;28;20144;-44
2022/09/12 10:59:43;;;;;;;27.83;19.95;;;23.90;91.00;;;;;;5011387;28;20050;-47
2022/09/12 11:02:14;;;;;;;26.10;18.92;;;23.90;91.60;;;;;;5011470;28;20105;-46
2022/09/12 11:04:47;;;;;;;27.05;18.92;;;24.00;90.70;;;;;;5011333;28;20478;-47
2022/09/12 11:07:39;;;;;;;29.10;22.10;;;24.10;90.90;;;;;;4993478;28;20072;-43
2022/09/12 11:10:15;;;;;;;31.23;21.05;;;24.10;89.20;;;;;;4994412;28;20050;-47
2022/09/12 11:12:46;;;;;;;32.30;21.98;;;24.20;90.90;;;;;;5013200;28;20132;-44
2022/09/12 11:15:23;;;;;;;30.17;20.98;;;24.30;90.00;;;;;;5012827;28;20058;-46
2022/09/12 11:17:52;;;;;;;29.42;19.95;;;24.40;90.30;;;;;;5011574;28;20074;-44
2022/09/12 11:20:38;;;;;;;26.48;18.77;;;24.50;90.00;;;;;;5011792;28;20099;-45
2022/09/12 11:23:33;;;;;;;25.75;19.38;;;24.60;89.80;;;;;;4992124;28;20474;-46
2022/09/12 11:26:03;;;;;;;25.05;18.38;;;24.70;89.30;;;;;;4984950;28;20050;-42
2022/09/12 11:28:35;;;;;;;27.92;18.30;;;24.80;87.80;;;;;;4999222;28;20049;-46
2022/09/12 11:31:15;;;;;;;20.33;14.55;;;24.70;87.70;;;;;;5011588;28;20141;-47
2022/09/12 11:33:43;;;;;;;22.55;15.90;;;24.80;87.10;;;;;;5012950;28;20089;-49
2022/09/12 11:36:16;;;;;;;19.92;14.20;;;24.90;87.10;;;;;;5013644;28;20058;-46
2022/09/12 11:38:57;;;;;;;19.23;13.50;;;25.00;87.20;;;;;;5009152;28;20046;-50
2022/09/12 11:41:25;;;;;;;20.25;14.73;;;25.00;87.00;;;;;;5012641;28;20058;-48
2022/09/12 11:43:56;;;;;;;18.58;13.63;;;24.90;85.50;;;;;;5013386;28;20104;-46
2022/09/12 11:46:25;;;;;;;17.90;11.70;;;24.80;85.20;;;;;;5012962;28;20057;-43
2022/09/12 11:48:54;;;;;;;18.83;13.95;;;24.70;84.80;;;;;;5012622;28;20061;-49
2022/09/12 11:51:25;;;;;;;21.95;14.30;;;24.70;84.00;;;;;;5012423;28;20088;-47
2022/09/12 11:54:05;;;;;;;25.17;16.75;;;24.70;83.10;;;;;;5011113;28;20061;-45
2022/09/12 11:56:32;;;;;;;23.00;15.73;;;24.70;82.30;;;;;;4998870;28;20421;-46
2022/09/12 11:59:03;;;;;;;18.92;14.90;;;24.70;83.10;;;;;;5013225;28;20045;-46
2022/09/12 12:01:32;;;;;;;;;;;24.70;83.90;;;;;;5013825;28;20221;-48
2022/09/12 12:03:59;;;;;;;22.27;14.68;;;24.80;85.40;;;;;;5012149;28;19921;-48
2022/09/12 12:06:30;;;;;;;21.15;13.98;;;24.90;83.50;;;;;;5012287;28;20765;-48
2022/09/12 12:08:56;;;;;;;17.30;11.73;;;24.90;83.70;;;;;;5012981;28;20108;-47
2022/09/12 12:11:29;;;;;;;17.35;10.90;;;25.00;83.20;;;;;;5012211;28;20464;-48
2022/09/12 12:13:57;;;;;;;15.73;11.32;;;25.10;82.70;;;;;;5013073;28;20104;-46
2022/09/12 12:16:26;;;;;;;15.25;11.15;;;25.30;80.80;;;;;;5006334;28;20404;-45
2022/09/12 12:18:54;;;;;;;18.50;12.35;;;25.40;79.70;;;;;;5004705;28;20042;-47
2022/09/12 12:21:39;;;;;;;15.65;12.00;;;25.50;79.80;;;;;;5010117;28;20121;-46
2022/09/12 12:24:14;;;;;;;15.98;11.93;;;25.60;78.70;;;;;;5012201;28;20056;-47
2022/09/12 12:26:43;;;;;;;15.57;11.10;;;25.70;79.60;;;;;;5011755;28;20057;-47
2022/09/12 12:29:10;;;;;;;14.60;11.18;;;25.70;78.70;;;;;;5012759;28;20529;-48
2022/09/12 12:32:10;;;;;;;17.42;11.35;;;25.80;77.70;;;;;;5012761;28;20050;-46
2022/09/12 12:34:37;;;;;;;13.23;9.48;;;25.80;77.00;;;;;;5012662;28;20050;-43
2022/09/12 12:37:38;;;;;;;15.75;10.65;;;25.80;78.00;;;;;;5011562;28;20569;-47
2022/09/12 12:40:09;;;;;;;12.13;8.98;;;25.90;77.80;;;;;;5003747;28;20089;-47
2022/09/12 12:43:04;;;;;;;12.50;8.93;;;26.00;77.70;;;;;;5011889;28;20107;-46
2022/09/12 12:46:07;;;;;;;9.48;7.05;;;26.10;75.60;;;;;;4993124;28;20109;-48